Time;durP1;ratioP1;P1;durP2;ratioP2;P2;SDS_P1;SDS_P2;PMS_P1;PMS_P2;Temp;Humidity;BMP_temperature;BMP_pressure;BME280_temperature;BME280_humidity;BME280_pressure;Samples;Min_cycle;Max_cycle;Signal;HPM_P1;HPM_P2
2024/01/14 00:01:21;;;;;;;23.52;14.98;;;-0.70;99.90;;;;;;4944520;28;20030;-61
2024/01/14 00:03:46;;;;;;;26.27;16.23;;;-0.70;99.90;;;;;;4951182;28;20032;-63
2024/01/14 00:06:12;;;;;;;25.50;14.98;;;-0.70;99.90;;;;;;4953679;28;20034;-61
2024/01/14 00:08:37;;;;;;;27.20;16.40;;;-0.70;99.90;;;;;;4953627;28;20117;-60
2024/01/14 00:11:04;;;;;;;30.40;16.90;;;-0.70;99.90;;;;;;4946776;28;20051;-61
2024/01/14 00:13:30;;;;;;;29.58;17.25;;;-0.70;99.90;;;;;;4953727;28;20020;-65
2024/01/14 00:15:55;;;;;;;30.48;16.08;;;-0.70;99.90;;;;;;4953341;28;20042;-62
2024/01/14 00:18:21;;;;;;;30.20;16.55;;;-0.70;99.90;;;;;;4955036;28;20028;-62
2024/01/14 00:20:46;;;;;;;32.42;17.42;;;-0.70;99.90;;;;;;4951905;28;20388;-61
2024/01/14 00:23:12;;;;;;;35.40;18.83;;;-0.70;99.90;;;;;;4952538;28;20031;-62
2024/01/14 00:25:38;;;;;;;30.55;17.13;;;-0.70;99.90;;;;;;4950488;28;20023;-61
2024/01/14 00:28:03;;;;;;;25.42;14.82;;;-0.70;99.90;;;;;;4951357;28;20027;-61
2024/01/14 00:30:29;;;;;;;27.60;15.48;;;-0.70;99.90;;;;;;4952898;28;20158;-60
2024/01/14 00:32:55;;;;;;;30.60;16.55;;;-0.70;99.90;;;;;;4952343;28;20035;-62
2024/01/14 00:35:20;;;;;;;34.03;17.13;;;-0.70;99.90;;;;;;4951633;28;20050;-62
2024/01/14 00:37:47;;;;;;;30.67;17.10;;;-0.70;99.90;;;;;;4948728;28;20043;-61
2024/01/14 00:40:13;;;;;;;32.97;17.27;;;-0.70;99.90;;;;;;4948989;28;20518;-61
2024/01/14 00:42:39;;;;;;;32.55;17.75;;;-0.70;99.90;;;;;;4952890;28;20080;-62
2024/01/14 00:45:05;;;;;;;32.53;18.60;;;-0.70;99.90;;;;;;4952547;28;20032;-61
2024/01/14 00:47:30;;;;;;;32.42;17.38;;;-0.70;99.90;;;;;;4950164;28;20110;-61
2024/01/14 00:49:57;;;;;;;36.38;17.20;;;-0.70;99.90;;;;;;4951009;28;20039;-62
2024/01/14 00:52:23;;;;;;;40.00;18.65;;;-0.70;99.90;;;;;;4952770;28;20035;-60
2024/01/14 00:54:48;;;;;;;38.00;17.67;;;-0.70;99.90;;;;;;4953878;28;20596;-61
2024/01/14 00:57:15;;;;;;;36.20;18.73;;;-0.80;99.90;;;;;;4972729;28;20047;-61
2024/01/14 00:59:40;;;;;;;33.95;17.23;;;-0.70;99.90;;;;;;4945190;28;20035;-62
2024/01/14 01:02:06;;;;;;;34.97;15.77;;;-0.80;99.90;;;;;;4937696;28;20031;-61
2024/01/14 01:04:32;;;;;;;35.03;17.90;;;-0.80;99.90;;;;;;4951506;28;20025;-62
2024/01/14 01:06:57;;;;;;;35.00;18.65;;;-0.80;99.90;;;;;;4943859;28;20036;-62
2024/01/14 01:09:23;;;;;;;40.05;19.13;;;-0.80;99.90;;;;;;4933088;28;20397;-62
2024/01/14 01:11:48;;;;;;;40.65;19.55;;;-0.80;99.90;;;;;;4929586;29;20028;-60
2024/01/14 01:14:15;;;;;;;31.73;17.20;;;-0.80;99.90;;;;;;4927367;28;20116;-61
2024/01/14 01:16:40;;;;;;;41.13;19.33;;;-0.70;99.90;;;;;;4930985;29;20099;-63
2024/01/14 01:19:06;;;;;;;37.88;19.52;;;-0.70;99.90;;;;;;4951938;28;20051;-61
2024/01/14 01:21:32;;;;;;;43.63;19.83;;;-0.70;99.90;;;;;;4951299;28;20387;-62
2024/01/14 01:23:58;;;;;;;42.90;18.88;;;-0.70;99.90;;;;;;4940965;28;20113;-62
2024/01/14 01:26:24;;;;;;;41.03;19.00;;;-0.70;99.90;;;;;;4935059;28;20484;-62
2024/01/14 01:28:50;;;;;;;48.17;19.90;;;-0.70;99.90;;;;;;4932518;28;20031;-63
2024/01/14 01:31:16;;;;;;;43.60;20.65;;;-0.80;99.90;;;;;;4947689;28;20390;-60
2024/01/14 01:33:41;;;;;;;54.92;20.95;;;-0.80;99.90;;;;;;4928287;28;20032;-60
2024/01/14 01:36:07;;;;;;;49.20;20.50;;;-0.80;99.90;;;;;;4939590;28;20853;-60
2024/01/14 01:38:33;;;;;;;43.78;21.05;;;-0.80;99.90;;;;;;4949234;28;20118;-60
2024/01/14 01:40:59;;;;;;;41.47;19.73;;;-0.80;99.90;;;;;;4951904;28;20053;-60
2024/01/14 01:43:25;;;;;;;46.60;21.63;;;-0.80;99.90;;;;;;4950159;28;20471;-62
2024/01/14 01:45:54;;;;;;;46.42;20.25;;;-0.80;99.90;;;;;;4953662;28;20037;-61
2024/01/14 01:48:21;;;;;;;52.75;21.60;;;-0.80;99.90;;;;;;4964102;28;20514;-63
2024/01/14 01:50:49;;;;;;;52.85;21.33;;;-0.80;99.90;;;;;;4939712;28;20036;-63
2024/01/14 01:53:16;;;;;;;48.47;22.83;;;-0.80;99.90;;;;;;4940522;28;20034;-61
2024/01/14 01:55:42;;;;;;;56.58;23.45;;;-0.80;99.90;;;;;;4952778;28;20471;-59
2024/01/14 01:58:08;;;;;;;53.58;23.38;;;-0.80;99.90;;;;;;4935189;29;20036;-60
2024/01/14 02:00:36;;;;;;;50.00;22.10;;;-0.80;99.90;;;;;;4947737;28;20114;-60
2024/01/14 02:03:03;;;;;;;45.05;20.70;;;-0.80;99.90;;;;;;4950987;28;20395;-60
2024/01/14 02:05:33;;;;;;;49.90;22.52;;;-0.80;99.90;;;;;;4948918;28;20027;-61
2024/01/14 02:07:59;;;;;;;51.35;21.83;;;-0.80;99.90;;;;;;4948087;28;20051;-61
2024/01/14 02:10:25;;;;;;;54.28;22.40;;;-0.90;99.90;;;;;;4952924;28;20054;-61
2024/01/14 02:12:50;;;;;;;55.40;22.92;;;-0.90;99.90;;;;;;4949016;28;20020;-62
2024/01/14 02:15:16;;;;;;;47.95;22.23;;;-0.90;99.90;;;;;;4948901;28;20037;-60
2024/01/14 02:17:42;;;;;;;52.58;23.38;;;-0.90;99.90;;;;;;4952110;28;20075;-62
2024/01/14 02:20:08;;;;;;;48.38;21.70;;;-0.90;99.90;;;;;;4951431;28;20035;-60
2024/01/14 02:22:39;;;;;;;54.60;23.27;;;-0.90;99.90;;;;;;4949227;28;20023;-62
2024/01/14 02:25:05;;;;;;;52.80;23.95;;;-0.90;99.90;;;;;;4948171;28;20058;-62
2024/01/14 02:27:32;;;;;;;55.30;25.77;;;-0.90;99.90;;;;;;4949852;28;20027;-61
2024/01/14 02:29:59;;;;;;;51.33;22.58;;;-0.90;99.90;;;;;;4948286;28;20052;-62
2024/01/14 02:32:25;;;;;;;50.28;23.13;;;-0.90;99.90;;;;;;4948622;28;20031;-61
2024/01/14 02:34:51;;;;;;;50.22;21.77;;;-0.90;99.90;;;;;;4949638;28;20549;-62
2024/01/14 02:37:17;;;;;;;49.65;22.27;;;-0.80;99.90;;;;;;4950774;28;20016;-61
2024/01/14 02:39:42;;;;;;;51.72;21.67;;;-0.80;99.90;;;;;;4949055;28;20035;-62
2024/01/14 02:42:09;;;;;;;50.63;22.33;;;-0.80;99.90;;;;;;4946582;28;20038;-61
2024/01/14 02:44:35;;;;;;;59.78;22.48;;;-0.90;99.90;;;;;;4951004;28;20043;-62
2024/01/14 02:47:00;;;;;;;54.33;21.45;;;-0.80;99.90;;;;;;4950801;28;20019;-61
2024/01/14 02:49:26;;;;;;;49.28;20.35;;;-0.80;99.90;;;;;;4948787;28;20074;-60
2024/01/14 02:51:52;;;;;;;51.70;21.33;;;-0.80;99.90;;;;;;4952489;28;20065;-62
2024/01/14 02:54:18;;;;;;;57.75;23.70;;;-0.80;99.90;;;;;;4951453;28;20046;-62
2024/01/14 02:56:43;;;;;;;50.25;20.33;;;-0.80;99.90;;;;;;4948844;28;20054;-62
2024/01/14 02:59:09;;;;;;;53.50;22.30;;;-0.80;99.90;;;;;;4950497;28;20031;-62
2024/01/14 03:01:46;;;;;;;50.55;21.67;;;-0.80;99.90;;;;;;4955924;28;20026;-63
2024/01/14 03:04:12;;;;;;;50.05;21.95;;;-0.80;99.90;;;;;;4947272;28;20050;-61
2024/01/14 03:06:37;;;;;;;57.45;21.60;;;-0.80;99.90;;;;;;4963624;28;20455;-61
2024/01/14 03:09:06;;;;;;;51.30;21.50;;;-0.80;99.90;;;;;;4935648;28;20504;-61
2024/01/14 03:11:32;;;;;;;53.83;20.67;;;-0.80;99.90;;;;;;4939232;28;20519;-63
2024/01/14 03:13:58;;;;;;;59.70;24.23;;;-0.80;99.90;;;;;;4951765;28;20118;-61
2024/01/14 03:16:24;;;;;;;60.00;22.60;;;-0.90;99.90;;;;;;4952497;28;20102;-61
2024/01/14 03:18:49;;;;;;;60.63;24.73;;;-0.80;99.90;;;;;;4951142;28;20030;-61
2024/01/14 03:21:18;;;;;;;61.58;24.13;;;-0.90;99.90;;;;;;4955098;28;20027;-61
2024/01/14 03:23:44;;;;;;;55.33;23.08;;;-0.90;99.90;;;;;;4954027;28;20466;-61
2024/01/14 03:26:10;;;;;;;58.78;23.45;;;-0.90;99.90;;;;;;4957408;28;20028;-61
2024/01/14 03:28:35;;;;;;;60.58;23.67;;;-0.90;99.90;;;;;;4957539;28;20778;-61
2024/01/14 03:31:01;;;;;;;59.75;23.48;;;-0.90;99.90;;;;;;4951776;28;20031;-61
2024/01/14 03:33:27;;;;;;;71.85;28.02;;;-0.90;99.90;;;;;;4952731;28;20069;-61
2024/01/14 03:35:52;;;;;;;68.70;25.38;;;-0.90;99.90;;;;;;4950364;28;20036;-62
2024/01/14 03:38:18;;;;;;;67.55;24.40;;;-0.90;99.90;;;;;;4952081;28;20130;-62
2024/01/14 03:40:44;;;;;;;67.07;22.92;;;-1.00;99.90;;;;;;4950273;28;20160;-61
2024/01/14 03:43:09;;;;;;;59.95;25.17;;;-1.00;99.90;;;;;;4954412;28;20387;-59
2024/01/14 03:45:35;;;;;;;58.58;23.40;;;-1.00;99.90;;;;;;4953829;28;20507;-61
2024/01/14 03:48:00;;;;;;;64.25;25.00;;;-1.00;99.90;;;;;;4948215;28;20035;-62
2024/01/14 03:50:26;;;;;;;60.33;23.95;;;-1.00;99.90;;;;;;4952351;28;20032;-62
2024/01/14 03:52:52;;;;;;;60.50;23.20;;;-1.00;99.90;;;;;;4947199;28;20016;-62
2024/01/14 03:55:17;;;;;;;61.95;23.23;;;-1.00;99.90;;;;;;4952878;28;20361;-61
2024/01/14 03:57:43;;;;;;;61.10;24.63;;;-1.00;99.90;;;;;;4959448;28;20098;-61
2024/01/14 04:00:10;;;;;;;61.53;24.60;;;-1.00;99.90;;;;;;4951739;28;20035;-61
2024/01/14 04:02:36;;;;;;;55.60;23.15;;;-1.00;99.90;;;;;;4952725;28;20090;-62
2024/01/14 04:05:01;;;;;;;70.72;23.75;;;-1.00;99.90;;;;;;4948210;28;20475;-61
2024/01/14 04:07:27;;;;;;;62.85;22.73;;;-1.00;99.90;;;;;;4948081;28;20027;-64
2024/01/14 04:09:52;;;;;;;53.00;23.63;;;-0.90;99.90;;;;;;4953503;28;20032;-62
2024/01/14 04:12:18;;;;;;;66.00;23.77;;;-0.90;99.90;;;;;;4950197;28;20024;-62
2024/01/14 04:14:44;;;;;;;60.88;24.02;;;-0.90;99.90;;;;;;4955932;28;21724;-61
2024/01/14 04:17:10;;;;;;;60.63;23.38;;;-0.90;99.90;;;;;;4956862;28;20042;-61
2024/01/14 04:19:37;;;;;;;51.10;23.30;;;-0.90;99.90;;;;;;4951459;28;20023;-61
2024/01/14 04:22:03;;;;;;;63.95;24.17;;;-0.90;99.90;;;;;;4955164;28;20032;-61
2024/01/14 04:24:28;;;;;;;57.03;22.92;;;-0.90;99.90;;;;;;4951552;28;20031;-61
2024/01/14 04:26:54;;;;;;;58.55;24.35;;;-0.90;99.90;;;;;;4950175;28;20027;-62
2024/01/14 04:29:20;;;;;;;56.22;22.73;;;-0.90;99.90;;;;;;4954870;28;20032;-63
2024/01/14 04:31:45;;;;;;;61.28;23.52;;;-0.90;99.90;;;;;;4953023;28;20101;-63
2024/01/14 04:34:11;;;;;;;67.63;24.50;;;-0.90;99.90;;;;;;4951483;28;20427;-61
2024/01/14 04:36:37;;;;;;;67.65;23.70;;;-1.00;99.90;;;;;;4948235;28;20531;-61
2024/01/14 04:39:02;;;;;;;63.30;25.05;;;-1.00;99.90;;;;;;4949142;28;20035;-61
2024/01/14 04:41:28;;;;;;;72.10;24.00;;;-1.00;99.90;;;;;;4949782;28;20054;-61
2024/01/14 04:43:54;;;;;;;68.35;26.60;;;-1.10;99.90;;;;;;4952028;28;20066;-60
2024/01/14 04:46:20;;;;;;;70.43;25.23;;;-1.10;99.90;;;;;;4955686;28;20480;-61
2024/01/14 04:48:45;;;;;;;64.47;26.33;;;-1.20;99.90;;;;;;4954550;28;20533;-61
2024/01/14 04:51:11;;;;;;;63.30;23.60;;;-1.20;99.90;;;;;;4953925;28;20034;-60
2024/01/14 04:53:37;;;;;;;61.38;24.90;;;-1.20;99.90;;;;;;4952804;28;20027;-60
2024/01/14 04:56:07;;;;;;;64.13;23.85;;;-1.20;99.90;;;;;;4951844;28;20031;-61
2024/01/14 04:58:33;;;;;;;62.90;25.35;;;-1.10;99.90;;;;;;4952199;28;20020;-60
2024/01/14 05:00:59;;;;;;;69.32;26.40;;;-1.20;99.90;;;;;;4953308;28;20027;-62
2024/01/14 05:03:24;;;;;;;69.35;26.67;;;-1.20;99.90;;;;;;4951594;28;20118;-60
2024/01/14 05:05:50;;;;;;;66.70;23.67;;;-1.20;99.90;;;;;;4952926;28;20031;-61
2024/01/14 05:08:16;;;;;;;66.10;25.20;;;-1.20;99.90;;;;;;4949400;28;20019;-61
2024/01/14 05:10:41;;;;;;;62.08;23.48;;;-1.20;99.90;;;;;;4949224;28;20481;-60
2024/01/14 05:13:07;;;;;;;61.15;23.92;;;-1.20;99.90;;;;;;4951507;28;20015;-60
2024/01/14 05:15:33;;;;;;;72.60;25.95;;;-1.20;99.90;;;;;;4947591;28;20028;-60
2024/01/14 05:17:59;;;;;;;70.90;25.30;;;-1.20;99.90;;;;;;4949422;28;20063;-61
2024/01/14 05:20:24;;;;;;;65.57;26.42;;;-1.20;99.90;;;;;;4949153;28;20063;-60
2024/01/14 05:22:50;;;;;;;69.60;25.23;;;-1.20;99.90;;;;;;4949376;28;20032;-62
2024/01/14 05:25:15;;;;;;;68.63;26.05;;;-1.20;99.90;;;;;;4949924;28;20029;-61
2024/01/14 05:27:41;;;;;;;76.15;25.90;;;-1.20;99.90;;;;;;4951564;28;20043;-59
2024/01/14 05:30:08;;;;;;;72.18;26.10;;;-1.20;99.90;;;;;;4951380;28;20347;-60
2024/01/14 05:32:34;;;;;;;62.17;24.75;;;-1.20;99.90;;;;;;4951778;28;20082;-62
2024/01/14 05:34:59;;;;;;;64.45;23.48;;;-1.20;99.90;;;;;;4964772;28;20035;-60
2024/01/14 05:37:25;;;;;;;64.55;24.98;;;-1.20;99.90;;;;;;4950034;28;20027;-61
2024/01/14 05:39:50;;;;;;;66.53;24.08;;;-1.20;99.90;;;;;;4947824;28;20028;-60
2024/01/14 05:42:16;;;;;;;71.55;25.48;;;-1.20;99.90;;;;;;4948973;28;20023;-60
2024/01/14 05:44:42;;;;;;;57.50;22.15;;;-1.20;99.90;;;;;;4950188;28;20035;-61
2024/01/14 05:47:08;;;;;;;54.40;22.40;;;-1.20;99.90;;;;;;4950366;28;20523;-61
2024/01/14 05:49:34;;;;;;;58.78;21.13;;;-1.20;99.90;;;;;;4952263;28;20043;-63
2024/01/14 05:51:59;;;;;;;59.03;24.00;;;-1.20;99.90;;;;;;4946755;28;20533;-62
2024/01/14 05:54:25;;;;;;;59.40;22.67;;;-1.20;99.90;;;;;;4952769;28;20031;-60
2024/01/14 05:56:51;;;;;;;56.78;22.77;;;-1.20;99.90;;;;;;4952861;28;20035;-61
2024/01/14 05:59:18;;;;;;;56.33;21.75;;;-1.20;99.90;;;;;;4950725;28;20040;-61
2024/01/14 06:01:43;;;;;;;64.72;23.27;;;-1.20;99.90;;;;;;4946004;28;20090;-61
2024/01/14 06:04:09;;;;;;;60.53;23.38;;;-1.20;99.90;;;;;;4945285;28;20090;-61
2024/01/14 06:06:35;;;;;;;65.32;22.92;;;-1.10;99.90;;;;;;4946786;28;20059;-62
2024/01/14 06:09:00;;;;;;;67.05;21.67;;;-1.20;99.90;;;;;;4948624;28;20134;-63
2024/01/14 06:11:26;;;;;;;54.78;21.02;;;-1.20;99.90;;;;;;4951887;28;20631;-63
2024/01/14 06:13:51;;;;;;;67.53;25.40;;;-1.20;99.90;;;;;;4949644;28;20027;-63
2024/01/14 06:16:17;;;;;;;55.63;21.67;;;-1.20;99.90;;;;;;4951165;28;20051;-61
2024/01/14 06:18:43;;;;;;;52.20;21.85;;;-1.20;99.90;;;;;;4952795;28;20035;-60
2024/01/14 06:21:08;;;;;;;52.22;20.88;;;-1.20;99.90;;;;;;4952142;28;20407;-60
2024/01/14 06:23:35;;;;;;;59.15;23.98;;;-1.20;99.90;;;;;;4950767;28;20039;-60
2024/01/14 06:26:01;;;;;;;44.80;19.88;;;-1.20;99.90;;;;;;4956371;28;20586;-61
2024/01/14 06:28:26;;;;;;;52.40;22.15;;;-1.20;99.90;;;;;;4945689;28;20103;-59
2024/01/14 06:30:52;;;;;;;57.28;21.90;;;-1.20;99.90;;;;;;4944891;28;20043;-60
2024/01/14 06:33:18;;;;;;;55.13;21.98;;;-1.20;99.90;;;;;;4956140;28;20036;-61
2024/01/14 06:35:44;;;;;;;47.90;21.27;;;-1.20;99.90;;;;;;4952516;28;20027;-62
2024/01/14 06:38:09;;;;;;;47.95;21.23;;;-1.10;99.90;;;;;;4950349;28;20050;-60
2024/01/14 06:40:35;;;;;;;53.88;20.17;;;-1.10;99.90;;;;;;4950751;28;20024;-60
2024/01/14 06:43:01;;;;;;;51.67;20.15;;;-1.20;99.90;;;;;;4951557;28;20030;-60
2024/01/14 06:45:27;;;;;;;59.28;20.70;;;-1.10;99.90;;;;;;4952465;28;20059;-59
2024/01/14 06:47:52;;;;;;;51.55;19.25;;;-1.10;99.90;;;;;;4951175;28;20031;-62
2024/01/14 06:50:18;;;;;;;45.75;20.58;;;-1.10;99.90;;;;;;4949834;28;20035;-62
2024/01/14 06:52:44;;;;;;;49.75;19.52;;;-1.10;99.90;;;;;;4954880;28;20023;-60
2024/01/14 06:55:15;;;;;;;46.78;20.30;;;-1.10;99.90;;;;;;4954923;28;20015;-60
2024/01/14 06:57:40;;;;;;;;;;;-1.10;99.90;;;;;;4956818;28;20133;-62
2024/01/14 07:00:08;;;;;;;44.42;17.95;;;-1.00;99.90;;;;;;4955089;28;20327;-61
2024/01/14 07:02:34;;;;;;;48.92;18.80;;;-1.10;99.90;;;;;;4952801;28;20064;-62
2024/01/14 07:05:00;;;;;;;46.97;20.60;;;-1.10;99.90;;;;;;4955170;28;20034;-60
2024/01/14 07:07:27;;;;;;;45.45;19.55;;;-1.00;99.90;;;;;;4959891;28;20028;-62
2024/01/14 07:09:53;;;;;;;50.10;21.38;;;-1.10;99.90;;;;;;4949633;28;20035;-62
2024/01/14 07:12:19;;;;;;;40.15;19.00;;;-1.00;99.90;;;;;;4953017;28;20409;-60
2024/01/14 07:14:44;;;;;;;44.17;18.83;;;-1.10;99.90;;;;;;4955171;28;20194;-61
2024/01/14 07:17:10;;;;;;;51.00;19.05;;;-1.00;99.90;;;;;;4952282;28;20412;-60
2024/01/14 07:19:35;;;;;;;46.83;19.50;;;-1.00;99.90;;;;;;4936136;29;20035;-59
2024/01/14 07:22:02;;;;;;;50.30;20.77;;;-1.00;99.90;;;;;;4957120;28;20031;-61
2024/01/14 07:24:28;;;;;;;39.55;19.02;;;-1.00;99.90;;;;;;4953637;28;20031;-60
2024/01/14 07:26:53;;;;;;;44.38;18.35;;;-1.10;99.90;;;;;;4951231;28;20051;-63
2024/01/14 07:29:19;;;;;;;43.25;19.05;;;-1.00;99.90;;;;;;4956451;28;20043;-59
2024/01/14 07:31:44;;;;;;;47.80;19.63;;;-1.00;99.90;;;;;;4955051;28;20028;-61
2024/01/14 07:34:10;;;;;;;43.83;17.80;;;-1.00;99.90;;;;;;4956895;28;20012;-61
2024/01/14 07:36:36;;;;;;;41.13;18.60;;;-1.00;99.90;;;;;;4952165;28;20050;-61
2024/01/14 07:39:03;;;;;;;43.17;18.55;;;-1.00;99.90;;;;;;4949817;28;20043;-60
2024/01/14 07:41:28;;;;;;;38.60;16.83;;;-1.00;99.90;;;;;;4950628;28;20036;-60
2024/01/14 07:43:54;;;;;;;47.05;19.40;;;-1.00;99.90;;;;;;4953024;28;20375;-60
2024/01/14 07:46:20;;;;;;;42.30;19.05;;;-1.10;99.90;;;;;;4954519;28;20031;-62
2024/01/14 07:48:46;;;;;;;40.70;17.45;;;-1.10;99.90;;;;;;4953970;28;20035;-61
2024/01/14 07:51:12;;;;;;;47.88;18.85;;;-1.10;99.90;;;;;;4953022;28;20484;-61
2024/01/14 07:53:37;;;;;;;52.10;18.35;;;-1.10;99.90;;;;;;4951486;28;20067;-60
2024/01/14 07:56:03;;;;;;;49.30;19.65;;;-1.10;99.90;;;;;;4951268;28;20027;-61
2024/01/14 07:58:30;;;;;;;42.25;18.92;;;-1.10;99.90;;;;;;4950798;28;20510;-61
2024/01/14 08:00:56;;;;;;;48.05;20.17;;;-1.10;99.90;;;;;;4951912;28;20032;-62
2024/01/14 08:03:22;;;;;;;56.28;20.42;;;-1.10;99.90;;;;;;4950859;28;20431;-63
2024/01/14 08:05:47;;;;;;;46.38;21.90;;;-1.10;99.90;;;;;;4948382;28;20042;-61
2024/01/14 08:08:13;;;;;;;48.90;19.92;;;-1.10;99.90;;;;;;4950127;28;20479;-62
2024/01/14 08:10:39;;;;;;;45.95;17.67;;;-1.10;99.90;;;;;;4953136;28;20028;-62
2024/01/14 08:13:05;;;;;;;52.67;20.00;;;-1.00;99.90;;;;;;4953488;28;20023;-63
2024/01/14 08:15:31;;;;;;;46.25;18.77;;;-1.00;99.90;;;;;;4951951;28;20023;-61
2024/01/14 08:17:56;;;;;;;43.53;18.58;;;-1.00;99.90;;;;;;4951270;28;20700;-61
2024/01/14 08:20:22;;;;;;;40.63;17.13;;;-1.00;99.90;;;;;;4951608;28;20027;-61
2024/01/14 08:22:48;;;;;;;48.70;20.13;;;-1.00;99.90;;;;;;4952182;28;20030;-61
2024/01/14 08:25:14;;;;;;;45.88;20.02;;;-1.00;99.90;;;;;;4954295;28;20023;-61
2024/01/14 08:27:40;;;;;;;45.00;18.02;;;-1.00;99.90;;;;;;4952624;28;20027;-62
2024/01/14 08:30:06;;;;;;;44.97;18.33;;;-1.00;99.90;;;;;;4940990;28;20035;-62
2024/01/14 08:32:32;;;;;;;44.75;18.33;;;-1.00;99.90;;;;;;4932735;28;20024;-61
2024/01/14 08:34:58;;;;;;;41.88;17.17;;;-1.00;99.90;;;;;;4936489;28;20031;-61
2024/01/14 08:37:24;;;;;;;46.50;18.85;;;-1.00;99.90;;;;;;4953167;28;20383;-61
2024/01/14 08:39:50;;;;;;;46.17;18.33;;;-0.90;99.90;;;;;;4948037;28;20419;-62
2024/01/14 08:42:17;;;;;;;39.83;17.13;;;-0.90;99.90;;;;;;4953687;28;20046;-62
2024/01/14 08:44:43;;;;;;;44.97;18.98;;;-0.90;99.90;;;;;;4951731;28;20637;-62
2024/01/14 08:47:08;;;;;;;41.63;18.70;;;-0.90;99.90;;;;;;4951777;28;20086;-61
2024/01/14 08:49:34;;;;;;;44.95;17.77;;;-0.80;99.90;;;;;;4952196;28;20051;-61
2024/01/14 08:52:01;;;;;;;43.03;17.52;;;-0.80;99.90;;;;;;4952286;28;20044;-61
2024/01/14 08:54:30;;;;;;;43.83;17.05;;;-0.80;99.90;;;;;;4966300;28;20023;-62
2024/01/14 08:56:56;;;;;;;40.45;17.17;;;-0.80;99.90;;;;;;4953089;28;20467;-63
2024/01/14 08:59:22;;;;;;;35.22;15.70;;;-0.90;99.90;;;;;;4961800;28;20035;-62
2024/01/14 09:01:47;;;;;;;38.70;17.63;;;-0.90;99.90;;;;;;4942947;28;20031;-63
2024/01/14 09:04:13;;;;;;;41.53;16.63;;;-0.90;99.90;;;;;;4929830;29;20028;-62
2024/01/14 09:06:39;;;;;;;33.85;16.30;;;-0.80;99.90;;;;;;4946871;28;20607;-62
2024/01/14 09:09:06;;;;;;;40.72;17.77;;;-0.80;99.90;;;;;;4946057;28;20040;-63
2024/01/14 09:11:32;;;;;;;44.83;17.58;;;-0.80;99.90;;;;;;4944833;28;20031;-62
2024/01/14 09:13:58;;;;;;;38.28;16.77;;;-0.80;99.90;;;;;;4948175;28;20066;-60
2024/01/14 09:16:24;;;;;;;35.05;16.45;;;-0.70;99.90;;;;;;4948843;28;20031;-62
2024/01/14 09:18:49;;;;;;;39.92;18.15;;;-0.70;99.90;;;;;;4949028;28;20495;-61
2024/01/14 09:21:15;;;;;;;45.30;17.40;;;-0.70;99.90;;;;;;4950893;28;20060;-61
2024/01/14 09:23:41;;;;;;;47.35;18.63;;;-0.70;99.90;;;;;;4948952;28;20063;-63
2024/01/14 09:26:06;;;;;;;42.33;18.38;;;-0.70;99.90;;;;;;4948580;28;20717;-61
2024/01/14 09:28:32;;;;;;;40.20;16.42;;;-0.70;99.90;;;;;;4949725;28;20043;-61
2024/01/14 09:30:58;;;;;;;46.95;17.65;;;-0.70;99.90;;;;;;4948499;28;20061;-61
2024/01/14 09:33:24;;;;;;;46.53;18.60;;;-0.70;99.90;;;;;;4949461;28;20059;-61
2024/01/14 09:35:49;;;;;;;38.05;15.90;;;-0.70;99.90;;;;;;4952290;28;20035;-63
2024/01/14 09:38:15;;;;;;;40.95;17.73;;;-0.70;99.90;;;;;;4949176;28;20047;-61
2024/01/14 09:40:41;;;;;;;37.45;17.83;;;-0.70;99.90;;;;;;4950413;28;20078;-62
2024/01/14 09:43:11;;;;;;;42.65;18.27;;;-0.70;99.90;;;;;;4947183;28;20058;-63
2024/01/14 09:45:40;;;;;;;44.17;19.10;;;-0.60;99.90;;;;;;4946918;28;20028;-61
2024/01/14 09:48:07;;;;;;;41.75;17.63;;;-0.60;99.90;;;;;;4950274;28;20563;-63
2024/01/14 09:50:34;;;;;;;39.20;18.80;;;-0.60;99.90;;;;;;4953852;28;20073;-61
2024/01/14 09:53:04;;;;;;;37.85;17.15;;;-0.60;99.90;;;;;;4947206;28;20032;-62
2024/01/14 09:55:30;;;;;;;37.08;17.10;;;-0.60;99.90;;;;;;4947311;28;20051;-62
2024/01/14 09:57:59;;;;;;;47.42;16.23;;;-0.60;99.90;;;;;;4949012;28;20064;-63
2024/01/14 10:00:25;;;;;;;37.25;15.50;;;-0.60;99.90;;;;;;4945646;28;20118;-62
2024/01/14 10:02:51;;;;;;;43.28;16.75;;;-0.60;99.90;;;;;;4947643;28;20551;-63
2024/01/14 10:05:17;;;;;;;40.25;15.65;;;-0.60;99.90;;;;;;4965922;28;20028;-61
2024/01/14 10:07:44;;;;;;;36.65;16.90;;;-0.60;99.90;;;;;;4950826;28;20035;-62
2024/01/14 10:10:10;;;;;;;37.75;16.30;;;-0.60;99.90;;;;;;4946084;28;20562;-61
2024/01/14 10:12:36;;;;;;;43.30;16.42;;;-0.60;99.90;;;;;;4947195;28;20030;-62
2024/01/14 10:15:03;;;;;;;39.30;17.92;;;-0.50;99.90;;;;;;4948745;28;20474;-64
2024/01/14 10:17:29;;;;;;;38.33;16.23;;;-0.50;99.90;;;;;;4948581;28;20046;-63
2024/01/14 10:19:57;;;;;;;39.47;16.73;;;-0.50;99.90;;;;;;4948592;28;20496;-62
2024/01/14 10:22:25;;;;;;;32.67;15.55;;;-0.40;99.90;;;;;;4949527;28;20024;-62
2024/01/14 10:24:51;;;;;;;43.78;17.63;;;-0.40;99.90;;;;;;4948314;28;20667;-61
2024/01/14 10:27:17;;;;;;;36.92;15.80;;;-0.40;99.90;;;;;;4954793;28;20154;-61
2024/01/14 10:29:43;;;;;;;32.65;14.70;;;-0.40;99.90;;;;;;4954155;28;20110;-61
2024/01/14 10:32:09;;;;;;;32.05;16.02;;;-0.50;99.90;;;;;;4953258;28;20384;-62
2024/01/14 10:34:34;;;;;;;34.85;14.52;;;-0.50;99.90;;;;;;4950058;28;20015;-61
2024/01/14 10:37:01;;;;;;;33.17;15.57;;;-0.50;99.90;;;;;;4950442;28;20490;-61
2024/01/14 10:39:31;;;;;;;41.28;15.60;;;-0.40;99.90;;;;;;4949434;28;20692;-63
2024/01/14 10:41:56;;;;;;;40.17;16.95;;;-0.40;99.90;;;;;;4950987;28;20093;-62
2024/01/14 10:44:22;;;;;;;39.38;15.15;;;-0.40;99.90;;;;;;4950900;28;20035;-62
2024/01/14 10:46:52;;;;;;;31.42;14.10;;;-0.50;99.90;;;;;;4951839;28;20046;-62
2024/01/14 10:49:24;;;;;;;31.95;15.27;;;-0.50;99.90;;;;;;4952200;28;20024;-61
2024/01/14 10:51:58;;;;;;;30.00;14.18;;;-0.50;99.90;;;;;;4955931;28;20404;-63
2024/01/14 10:54:45;;;;;;;36.83;15.57;;;-0.50;99.90;;;;;;4937865;28;20067;-63
2024/01/14 10:57:36;;;;;;;39.10;17.05;;;-0.50;99.90;;;;;;4948782;28;20511;-61
2024/01/14 11:00:06;;;;;;;;;;;-0.50;99.90;;;;;;4959388;28;20031;-62
2024/01/14 11:02:34;;;;;;;41.10;16.10;;;-0.60;99.90;;;;;;4959680;28;19918;-63
2024/01/14 11:05:00;;;;;;;39.58;16.15;;;-0.60;99.90;;;;;;4956393;28;20047;-60
2024/01/14 11:07:27;;;;;;;37.47;16.23;;;-0.50;99.90;;;;;;4951722;28;20031;-61
2024/01/14 11:09:53;;;;;;;39.70;16.30;;;-0.50;99.90;;;;;;4953473;28;20039;-61
2024/01/14 11:12:41;;;;;;;41.22;16.30;;;-0.50;99.90;;;;;;4949140;28;20032;-63
2024/01/14 11:15:15;;;;;;;46.63;17.85;;;-0.40;99.90;;;;;;4945515;28;20028;-61
2024/01/14 11:17:47;;;;;;;37.05;14.63;;;-0.40;99.90;;;;;;4951900;28;20107;-61
2024/01/14 11:20:16;;;;;;;38.97;17.23;;;-0.40;99.90;;;;;;4963062;28;20404;-64
2024/01/14 11:22:43;;;;;;;40.15;16.33;;;-0.40;99.90;;;;;;4948473;28;20034;-60
2024/01/14 11:25:16;;;;;;;40.10;17.02;;;-0.40;99.90;;;;;;4951569;28;20103;-63
2024/01/14 11:27:42;;;;;;;40.17;14.45;;;-0.40;99.90;;;;;;4954620;28;20031;-62
2024/01/14 11:30:16;;;;;;;40.58;16.25;;;-0.50;99.90;;;;;;4940550;28;20514;-61
2024/01/14 11:32:42;;;;;;;32.78;14.55;;;-0.50;99.90;;;;;;4941699;28;20118;-64
2024/01/14 11:35:09;;;;;;;37.90;17.75;;;-0.50;99.90;;;;;;4951028;28;20123;-61
2024/01/14 11:37:48;;;;;;;38.55;16.30;;;-0.40;99.90;;;;;;4949914;28;20404;-63
2024/01/14 11:40:27;;;;;;;37.03;14.55;;;-0.40;99.90;;;;;;4930291;28;20031;-61
2024/01/14 11:43:07;;;;;;;40.63;16.42;;;-0.30;99.90;;;;;;4951064;28;20631;-62
2024/01/14 11:45:34;;;;;;;33.55;15.32;;;-0.30;99.90;;;;;;4964175;28;20031;-61
2024/01/14 11:48:05;;;;;;;38.53;17.42;;;-0.30;99.90;;;;;;4948428;28;20039;-61
2024/01/14 11:50:33;;;;;;;38.80;16.33;;;-0.30;99.90;;;;;;4954931;28;20028;-62
2024/01/14 11:53:00;;;;;;;34.63;15.35;;;-0.30;99.90;;;;;;4957062;28;20043;-62
2024/01/14 11:55:29;;;;;;;39.65;15.98;;;-0.40;99.90;;;;;;4958899;28;20028;-61
2024/01/14 11:57:55;;;;;;;34.10;14.82;;;-0.40;99.90;;;;;;4927143;28;20515;-62
2024/01/14 12:00:25;;;;;;;31.77;13.93;;;-0.40;99.90;;;;;;4943259;28;20031;-63
2024/01/14 12:03:11;;;;;;;37.13;14.75;;;-0.40;99.90;;;;;;4949289;28;20095;-61
2024/01/14 12:05:40;;;;;;;37.60;14.77;;;-0.40;99.90;;;;;;4950517;28;20051;-61
2024/01/14 12:08:05;;;;;;;34.13;15.32;;;-0.30;99.90;;;;;;4952559;28;20130;-60
2024/01/14 12:10:32;;;;;;;37.13;15.93;;;-0.30;99.90;;;;;;4942989;28;20154;-61
2024/01/14 12:12:59;;;;;;;35.65;15.85;;;-0.30;99.90;;;;;;4929752;29;20039;-61
2024/01/14 12:15:26;;;;;;;36.75;15.32;;;-0.30;99.90;;;;;;4942347;28;20023;-63
2024/01/14 12:17:56;;;;;;;38.58;15.85;;;-0.40;99.90;;;;;;4948681;28;20503;-61
2024/01/14 12:20:23;;;;;;;42.28;15.93;;;-0.40;99.90;;;;;;4952570;28;20694;-63
2024/01/14 12:22:58;;;;;;;32.63;13.73;;;-0.50;99.90;;;;;;4951193;28;20035;-64
2024/01/14 12:25:25;;;;;;;37.30;15.55;;;-0.50;99.90;;;;;;4951784;28;20030;-60